sensor_id;sensor_type;location;lat;lon;timestamp;P1;durP1;ratioP1;P2;durP2;ratioP2
3000;SDS011;1510;51.072;6.678;2022-11-20T00:01:09;26.83;;;17.03;;
3000;SDS011;1510;51.072;6.678;2022-11-20T00:03:37;30.17;;;19.07;;
3000;SDS011;1510;51.072;6.678;2022-11-20T00:06:05;26.67;;;17.90;;
3000;SDS011;1510;51.072;6.678;2022-11-20T00:08:33;30.10;;;18.13;;
3000;SDS011;1510;51.072;6.678;2022-11-20T00:11:02;31.63;;;17.80;;
3000;SDS011;1510;51.072;6.678;2022-11-20T00:13:30;26.30;;;16.60;;
3000;SDS011;1510;51.072;6.678;2022-11-20T00:15:57;27.43;;;15.27;;
3000;SDS011;1510;51.072;6.678;2022-11-20T00:18:25;22.77;;;14.90;;
3000;SDS011;1510;51.072;6.678;2022-11-20T00:20:52;29.60;;;17.20;;
3000;SDS011;1510;51.072;6.678;2022-11-20T00:23:19;25.00;;;17.23;;
3000;SDS011;1510;51.072;6.678;2022-11-20T00:25:46;30.27;;;16.20;;
3000;SDS011;1510;51.072;6.678;2022-11-20T00:28:13;32.90;;;18.70;;
3000;SDS011;1510;51.072;6.678;2022-11-20T00:30:40;28.60;;;18.00;;
3000;SDS011;1510;51.072;6.678;2022-11-20T00:33:06;27.00;;;18.70;;
3000;SDS011;1510;51.072;6.678;2022-11-20T00:35:34;25.37;;;18.13;;
3000;SDS011;1510;51.072;6.678;2022-11-20T00:38:01;34.40;;;18.97;;
3000;SDS011;1510;51.072;6.678;2022-11-20T00:40:28;29.17;;;19.43;;
3000;SDS011;1510;51.072;6.678;2022-11-20T00:42:55;29.87;;;17.37;;
3000;SDS011;1510;51.072;6.678;2022-11-20T00:45:22;25.40;;;15.33;;
3000;SDS011;1510;51.072;6.678;2022-11-20T00:47:48;27.87;;;15.83;;
3000;SDS011;1510;51.072;6.678;2022-11-20T00:50:15;28.53;;;15.87;;
3000;SDS011;1510;51.072;6.678;2022-11-20T00:52:43;25.83;;;15.20;;
3000;SDS011;1510;51.072;6.678;2022-11-20T00:55:10;26.27;;;14.43;;
3000;SDS011;1510;51.072;6.678;2022-11-20T00:57:37;36.23;;;17.63;;
3000;SDS011;1510;51.072;6.678;2022-11-20T01:00:04;29.53;;;16.27;;
3000;SDS011;1510;51.072;6.678;2022-11-20T01:02:32;26.60;;;16.13;;
3000;SDS011;1510;51.072;6.678;2022-11-20T01:04:59;31.80;;;17.93;;
3000;SDS011;1510;51.072;6.678;2022-11-20T01:07:25;28.67;;;17.80;;
3000;SDS011;1510;51.072;6.678;2022-11-20T01:09:54;28.40;;;18.33;;
3000;SDS011;1510;51.072;6.678;2022-11-20T01:12:20;27.17;;;18.00;;
3000;SDS011;1510;51.072;6.678;2022-11-20T01:14:47;32.40;;;18.13;;
3000;SDS011;1510;51.072;6.678;2022-11-20T01:17:14;29.03;;;19.60;;
3000;SDS011;1510;51.072;6.678;2022-11-20T01:19:41;30.97;;;19.73;;
3000;SDS011;1510;51.072;6.678;2022-11-20T01:22:09;27.30;;;18.30;;
3000;SDS011;1510;51.072;6.678;2022-11-20T01:24:35;30.77;;;18.40;;
3000;SDS011;1510;51.072;6.678;2022-11-20T01:27:04;27.30;;;18.20;;
3000;SDS011;1510;51.072;6.678;2022-11-20T01:29:30;34.73;;;16.30;;
3000;SDS011;1510;51.072;6.678;2022-11-20T01:31:57;27.70;;;18.73;;
3000;SDS011;1510;51.072;6.678;2022-11-20T01:34:24;34.70;;;19.83;;
3000;SDS011;1510;51.072;6.678;2022-11-20T01:36:51;28.50;;;19.23;;
3000;SDS011;1510;51.072;6.678;2022-11-20T01:39:19;34.13;;;19.47;;
3000;SDS011;1510;51.072;6.678;2022-11-20T01:41:47;36.10;;;21.57;;
3000;SDS011;1510;51.072;6.678;2022-11-20T01:44:49;28.57;;;21.63;;
3000;SDS011;1510;51.072;6.678;2022-11-20T01:47:20;30.53;;;21.63;;
3000;SDS011;1510;51.072;6.678;2022-11-20T01:49:52;34.83;;;22.43;;
3000;SDS011;1510;51.072;6.678;2022-11-20T01:52:24;27.93;;;19.00;;
3000;SDS011;1510;51.072;6.678;2022-11-20T01:54:58;29.73;;;19.50;;
3000;SDS011;1510;51.072;6.678;2022-11-20T01:57:28;30.13;;;20.60;;
3000;SDS011;1510;51.072;6.678;2022-11-20T02:00:00;33.23;;;23.83;;
3000;SDS011;1510;51.072;6.678;2022-11-20T02:02:29;31.40;;;23.23;;
3000;SDS011;1510;51.072;6.678;2022-11-20T02:04:58;31.20;;;23.47;;
3000;SDS011;1510;51.072;6.678;2022-11-20T02:07:32;36.43;;;23.23;;
3000;SDS011;1510;51.072;6.678;2022-11-20T02:09:59;34.30;;;25.00;;
3000;SDS011;1510;51.072;6.678;2022-11-20T02:12:26;32.80;;;23.63;;
3000;SDS011;1510;51.072;6.678;2022-11-20T02:15:12;36.53;;;25.00;;
3000;SDS011;1510;51.072;6.678;2022-11-20T02:17:39;30.70;;;22.57;;
3000;SDS011;1510;51.072;6.678;2022-11-20T02:20:06;36.30;;;25.80;;
3000;SDS011;1510;51.072;6.678;2022-11-20T02:22:35;32.20;;;22.93;;
3000;SDS011;1510;51.072;6.678;2022-11-20T02:25:10;32.63;;;23.50;;
3000;SDS011;1510;51.072;6.678;2022-11-20T02:27:38;29.33;;;22.33;;
3000;SDS011;1510;51.072;6.678;2022-11-20T02:30:05;27.47;;;19.40;;
3000;SDS011;1510;51.072;6.678;2022-11-20T02:32:34;29.63;;;18.87;;
3000;SDS011;1510;51.072;6.678;2022-11-20T02:35:06;23.50;;;15.93;;
3000;SDS011;1510;51.072;6.678;2022-11-20T02:37:34;32.50;;;19.90;;
3000;SDS011;1510;51.072;6.678;2022-11-20T02:40:04;29.63;;;18.47;;
3000;SDS011;1510;51.072;6.678;2022-11-20T02:42:33;26.03;;;18.37;;
3000;SDS011;1510;51.072;6.678;2022-11-20T02:45:00;30.97;;;19.57;;
3000;SDS011;1510;51.072;6.678;2022-11-20T02:47:26;30.83;;;20.73;;
3000;SDS011;1510;51.072;6.678;2022-11-20T02:49:53;26.67;;;18.53;;
3000;SDS011;1510;51.072;6.678;2022-11-20T02:52:20;31.47;;;20.10;;
3000;SDS011;1510;51.072;6.678;2022-11-20T02:54:47;31.40;;;23.43;;
3000;SDS011;1510;51.072;6.678;2022-11-20T02:57:14;33.37;;;22.30;;
3000;SDS011;1510;51.072;6.678;2022-11-20T02:59:42;27.00;;;24.00;;
3000;SDS011;1510;51.072;6.678;2022-11-20T03:02:09;40.30;;;23.50;;
3000;SDS011;1510;51.072;6.678;2022-11-20T03:04:36;30.60;;;22.80;;
3000;SDS011;1510;51.072;6.678;2022-11-20T03:07:03;28.27;;;21.40;;
3000;SDS011;1510;51.072;6.678;2022-11-20T03:09:30;29.30;;;22.63;;
3000;SDS011;1510;51.072;6.678;2022-11-20T03:11:56;33.40;;;23.57;;
3000;SDS011;1510;51.072;6.678;2022-11-20T03:14:23;35.00;;;23.13;;
3000;SDS011;1510;51.072;6.678;2022-11-20T03:16:51;30.47;;;22.50;;
3000;SDS011;1510;51.072;6.678;2022-11-20T03:19:18;26.53;;;21.23;;
3000;SDS011;1510;51.072;6.678;2022-11-20T03:21:45;27.80;;;20.07;;
3000;SDS011;1510;51.072;6.678;2022-11-20T03:24:12;29.80;;;21.33;;
3000;SDS011;1510;51.072;6.678;2022-11-20T03:26:39;35.30;;;26.50;;
3000;SDS011;1510;51.072;6.678;2022-11-20T03:29:06;32.10;;;28.80;;
3000;SDS011;1510;51.072;6.678;2022-11-20T03:31:33;36.60;;;33.07;;
3000;SDS011;1510;51.072;6.678;2022-11-20T03:34:06;41.93;;;37.90;;
3000;SDS011;1510;51.072;6.678;2022-11-20T03:36:34;47.37;;;43.37;;
3000;SDS011;1510;51.072;6.678;2022-11-20T03:39:03;54.53;;;50.43;;
3000;SDS011;1510;51.072;6.678;2022-11-20T03:41:31;75.47;;;70.40;;
3000;SDS011;1510;51.072;6.678;2022-11-20T03:44:02;128.27;;;121.90;;
3000;SDS011;1510;51.072;6.678;2022-11-20T03:46:31;164.80;;;157.10;;
3000;SDS011;1510;51.072;6.678;2022-11-20T03:48:58;275.57;;;263.73;;
3000;SDS011;1510;51.072;6.678;2022-11-20T03:51:26;327.57;;;313.83;;
3000;SDS011;1510;51.072;6.678;2022-11-20T03:53:56;340.30;;;325.63;;
3000;SDS011;1510;51.072;6.678;2022-11-20T03:56:24;377.37;;;360.80;;
3000;SDS011;1510;51.072;6.678;2022-11-20T03:58:53;422.93;;;403.17;;
3000;SDS011;1510;51.072;6.678;2022-11-20T04:01:21;441.40;;;420.43;;
3000;SDS011;1510;51.072;6.678;2022-11-20T04:03:49;424.73;;;404.93;;
3000;SDS011;1510;51.072;6.678;2022-11-20T04:06:19;444.73;;;422.07;;
3000;SDS011;1510;51.072;6.678;2022-11-20T04:08:48;414.07;;;394.97;;
3000;SDS011;1510;51.072;6.678;2022-11-20T04:11:16;415.53;;;395.63;;
3000;SDS011;1510;51.072;6.678;2022-11-20T04:13:45;404.13;;;385.03;;
3000;SDS011;1510;51.072;6.678;2022-11-20T04:16:13;422.77;;;402.50;;
3000;SDS011;1510;51.072;6.678;2022-11-20T04:18:40;439.40;;;418.10;;
3000;SDS011;1510;51.072;6.678;2022-11-20T04:21:08;450.53;;;426.43;;
3000;SDS011;1510;51.072;6.678;2022-11-20T04:23:37;389.80;;;371.60;;
3000;SDS011;1510;51.072;6.678;2022-11-20T04:26:06;394.87;;;376.77;;
3000;SDS011;1510;51.072;6.678;2022-11-20T04:28:34;398.00;;;379.50;;
3000;SDS011;1510;51.072;6.678;2022-11-20T04:31:02;382.63;;;364.87;;
3000;SDS011;1510;51.072;6.678;2022-11-20T04:33:30;380.67;;;362.77;;
3000;SDS011;1510;51.072;6.678;2022-11-20T04:35:59;361.07;;;344.57;;
3000;SDS011;1510;51.072;6.678;2022-11-20T04:38:28;352.03;;;335.53;;
3000;SDS011;1510;51.072;6.678;2022-11-20T04:40:58;310.13;;;296.73;;
3000;SDS011;1510;51.072;6.678;2022-11-20T04:43:26;278.63;;;266.63;;
3000;SDS011;1510;51.072;6.678;2022-11-20T04:45:53;270.40;;;258.30;;
3000;SDS011;1510;51.072;6.678;2022-11-20T04:48:21;253.00;;;242.30;;
3000;SDS011;1510;51.072;6.678;2022-11-20T04:50:48;241.40;;;230.57;;
3000;SDS011;1510;51.072;6.678;2022-11-20T04:53:15;220.40;;;211.00;;
3000;SDS011;1510;51.072;6.678;2022-11-20T04:55:42;216.30;;;206.63;;
3000;SDS011;1510;51.072;6.678;2022-11-20T04:58:09;232.13;;;221.63;;
3000;SDS011;1510;51.072;6.678;2022-11-20T05:00:37;231.40;;;221.70;;
3000;SDS011;1510;51.072;6.678;2022-11-20T05:03:04;222.20;;;212.57;;
3000;SDS011;1510;51.072;6.678;2022-11-20T05:05:31;262.10;;;250.80;;
3000;SDS011;1510;51.072;6.678;2022-11-20T05:07:59;244.40;;;234.13;;
3000;SDS011;1510;51.072;6.678;2022-11-20T05:10:26;240.13;;;229.63;;
3000;SDS011;1510;51.072;6.678;2022-11-20T05:12:53;220.47;;;210.77;;
3000;SDS011;1510;51.072;6.678;2022-11-20T05:15:20;243.73;;;233.37;;
3000;SDS011;1510;51.072;6.678;2022-11-20T05:17:48;291.13;;;278.33;;
3000;SDS011;1510;51.072;6.678;2022-11-20T05:20:15;303.40;;;291.00;;
3000;SDS011;1510;51.072;6.678;2022-11-20T05:22:42;324.53;;;309.93;;
3000;SDS011;1510;51.072;6.678;2022-11-20T05:25:09;355.77;;;339.87;;
3000;SDS011;1510;51.072;6.678;2022-11-20T05:27:37;365.33;;;349.00;;
3000;SDS011;1510;51.072;6.678;2022-11-20T05:30:04;342.90;;;326.77;;
3000;SDS011;1510;51.072;6.678;2022-11-20T05:32:32;336.47;;;320.50;;
3000;SDS011;1510;51.072;6.678;2022-11-20T05:35:00;286.33;;;274.10;;
3000;SDS011;1510;51.072;6.678;2022-11-20T05:37:27;274.20;;;262.47;;
3000;SDS011;1510;51.072;6.678;2022-11-20T05:39:54;284.00;;;271.83;;
3000;SDS011;1510;51.072;6.678;2022-11-20T05:42:20;302.67;;;289.47;;
3000;SDS011;1510;51.072;6.678;2022-11-20T05:44:56;318.27;;;304.27;;
3000;SDS011;1510;51.072;6.678;2022-11-20T05:47:23;329.30;;;313.90;;
3000;SDS011;1510;51.072;6.678;2022-11-20T05:49:50;309.70;;;295.63;;
3000;SDS011;1510;51.072;6.678;2022-11-20T05:52:18;290.10;;;276.63;;
3000;SDS011;1510;51.072;6.678;2022-11-20T05:54:46;287.73;;;274.73;;
3000;SDS011;1510;51.072;6.678;2022-11-20T05:57:12;293.63;;;280.40;;
3000;SDS011;1510;51.072;6.678;2022-11-20T05:59:39;296.83;;;283.77;;
3000;SDS011;1510;51.072;6.678;2022-11-20T06:02:06;310.10;;;296.10;;
3000;SDS011;1510;51.072;6.678;2022-11-20T06:04:33;308.27;;;294.53;;
3000;SDS011;1510;51.072;6.678;2022-11-20T06:06:59;299.50;;;285.70;;
3000;SDS011;1510;51.072;6.678;2022-11-20T06:09:27;299.33;;;286.37;;
3000;SDS011;1510;51.072;6.678;2022-11-20T06:11:55;314.00;;;299.80;;
3000;SDS011;1510;51.072;6.678;2022-11-20T06:14:21;346.97;;;331.47;;
3000;SDS011;1510;51.072;6.678;2022-11-20T06:16:48;371.47;;;355.77;;
3000;SDS011;1510;51.072;6.678;2022-11-20T06:19:15;450.73;;;430.03;;
3000;SDS011;1510;51.072;6.678;2022-11-20T06:21:42;477.67;;;455.50;;
3000;SDS011;1510;51.072;6.678;2022-11-20T06:24:09;505.53;;;481.53;;
3000;SDS011;1510;51.072;6.678;2022-11-20T06:26:38;533.10;;;507.70;;
3000;SDS011;1510;51.072;6.678;2022-11-20T06:29:04;580.53;;;551.07;;
3000;SDS011;1510;51.072;6.678;2022-11-20T06:31:34;647.43;;;612.07;;
3000;SDS011;1510;51.072;6.678;2022-11-20T06:34:19;674.40;;;636.40;;
3000;SDS011;1510;51.072;6.678;2022-11-20T06:36:50;705.40;;;665.73;;
3000;SDS011;1510;51.072;6.678;2022-11-20T06:39:23;710.63;;;668.33;;
3000;SDS011;1510;51.072;6.678;2022-11-20T06:41:51;750.67;;;704.07;;
3000;SDS011;1510;51.072;6.678;2022-11-20T06:44:18;798.80;;;747.43;;
3000;SDS011;1510;51.072;6.678;2022-11-20T06:46:50;804.77;;;752.93;;
3000;SDS011;1510;51.072;6.678;2022-11-20T06:49:20;818.03;;;766.33;;
3000;SDS011;1510;51.072;6.678;2022-11-20T06:51:59;822.07;;;770.87;;
3000;SDS011;1510;51.072;6.678;2022-11-20T06:54:30;840.37;;;786.90;;
3000;SDS011;1510;51.072;6.678;2022-11-20T06:57:03;873.60;;;817.30;;
3000;SDS011;1510;51.072;6.678;2022-11-20T06:59:30;868.27;;;810.80;;
3000;SDS011;1510;51.072;6.678;2022-11-20T07:01:57;879.43;;;819.87;;
3000;SDS011;1510;51.072;6.678;2022-11-20T07:04:27;882.27;;;820.67;;
3000;SDS011;1510;51.072;6.678;2022-11-20T07:07:03;884.87;;;821.27;;
3000;SDS011;1510;51.072;6.678;2022-11-20T07:09:31;878.87;;;815.97;;
3000;SDS011;1510;51.072;6.678;2022-11-20T07:12:00;871.73;;;810.33;;
3000;SDS011;1510;51.072;6.678;2022-11-20T07:14:28;860.87;;;801.87;;
3000;SDS011;1510;51.072;6.678;2022-11-20T07:16:56;868.20;;;809.10;;
3000;SDS011;1510;51.072;6.678;2022-11-20T07:19:23;865.30;;;804.40;;
3000;SDS011;1510;51.072;6.678;2022-11-20T07:21:50;864.93;;;804.60;;
3000;SDS011;1510;51.072;6.678;2022-11-20T07:24:27;854.33;;;795.57;;
3000;SDS011;1510;51.072;6.678;2022-11-20T07:26:54;847.00;;;789.30;;
3000;SDS011;1510;51.072;6.678;2022-11-20T07:29:21;826.17;;;772.30;;
3000;SDS011;1510;51.072;6.678;2022-11-20T07:31:49;821.03;;;767.00;;
3000;SDS011;1510;51.072;6.678;2022-11-20T07:34:16;792.30;;;741.20;;
3000;SDS011;1510;51.072;6.678;2022-11-20T07:36:46;762.07;;;715.30;;
3000;SDS011;1510;51.072;6.678;2022-11-20T07:39:13;770.07;;;721.73;;
3000;SDS011;1510;51.072;6.678;2022-11-20T07:41:40;758.93;;;711.27;;
3000;SDS011;1510;51.072;6.678;2022-11-20T07:44:07;756.00;;;709.13;;
3000;SDS011;1510;51.072;6.678;2022-11-20T07:46:33;715.53;;;672.57;;
3000;SDS011;1510;51.072;6.678;2022-11-20T07:49:02;683.33;;;643.47;;
3000;SDS011;1510;51.072;6.678;2022-11-20T07:51:34;651.17;;;614.97;;
3000;SDS011;1510;51.072;6.678;2022-11-20T07:54:04;617.93;;;583.83;;
3000;SDS011;1510;51.072;6.678;2022-11-20T07:56:31;562.27;;;532.17;;
3000;SDS011;1510;51.072;6.678;2022-11-20T07:59:04;541.33;;;512.43;;
3000;SDS011;1510;51.072;6.678;2022-11-20T08:01:33;511.23;;;484.90;;
3000;SDS011;1510;51.072;6.678;2022-11-20T08:04:00;495.87;;;469.97;;
3000;SDS011;1510;51.072;6.678;2022-11-20T08:06:29;452.87;;;430.77;;
3000;SDS011;1510;51.072;6.678;2022-11-20T08:08:56;445.73;;;423.23;;
3000;SDS011;1510;51.072;6.678;2022-11-20T08:11:25;408.70;;;388.67;;
3000;SDS011;1510;51.072;6.678;2022-11-20T08:14:10;363.80;;;345.40;;
3000;SDS011;1510;51.072;6.678;2022-11-20T08:16:40;335.03;;;318.90;;
3000;SDS011;1510;51.072;6.678;2022-11-20T08:19:12;317.27;;;301.57;;
3000;SDS011;1510;51.072;6.678;2022-11-20T08:21:42;284.53;;;270.40;;
3000;SDS011;1510;51.072;6.678;2022-11-20T08:24:09;246.13;;;233.97;;
3000;SDS011;1510;51.072;6.678;2022-11-20T08:26:37;214.63;;;203.83;;
3000;SDS011;1510;51.072;6.678;2022-11-20T08:29:07;216.20;;;204.80;;
3000;SDS011;1510;51.072;6.678;2022-11-20T08:31:34;193.23;;;184.00;;
3000;SDS011;1510;51.072;6.678;2022-11-20T08:34:04;165.50;;;156.93;;
3000;SDS011;1510;51.072;6.678;2022-11-20T08:36:35;146.00;;;138.40;;
3000;SDS011;1510;51.072;6.678;2022-11-20T08:39:02;142.83;;;135.33;;
3000;SDS011;1510;51.072;6.678;2022-11-20T08:41:29;146.53;;;138.70;;
3000;SDS011;1510;51.072;6.678;2022-11-20T08:43:58;135.33;;;128.00;;
3000;SDS011;1510;51.072;6.678;2022-11-20T08:46:31;127.83;;;121.10;;
3000;SDS011;1510;51.072;6.678;2022-11-20T08:49:01;123.20;;;116.23;;
3000;SDS011;1510;51.072;6.678;2022-11-20T08:51:28;109.93;;;103.93;;
3000;SDS011;1510;51.072;6.678;2022-11-20T08:54:00;108.53;;;102.43;;
3000;SDS011;1510;51.072;6.678;2022-11-20T08:56:27;116.23;;;110.00;;
3000;SDS011;1510;51.072;6.678;2022-11-20T08:58:54;93.90;;;88.20;;
3000;SDS011;1510;51.072;6.678;2022-11-20T09:01:21;105.23;;;98.83;;
3000;SDS011;1510;51.072;6.678;2022-11-20T09:03:49;84.80;;;79.43;;
3000;SDS011;1510;51.072;6.678;2022-11-20T09:06:16;86.20;;;80.67;;
3000;SDS011;1510;51.072;6.678;2022-11-20T09:08:44;81.60;;;76.00;;
3000;SDS011;1510;51.072;6.678;2022-11-20T09:11:12;66.07;;;60.90;;
3000;SDS011;1510;51.072;6.678;2022-11-20T09:13:39;78.97;;;73.80;;
3000;SDS011;1510;51.072;6.678;2022-11-20T09:16:07;75.00;;;69.30;;
3000;SDS011;1510;51.072;6.678;2022-11-20T09:18:35;58.50;;;53.53;;
3000;SDS011;1510;51.072;6.678;2022-11-20T09:21:03;44.27;;;40.10;;
3000;SDS011;1510;51.072;6.678;2022-11-20T09:23:32;37.77;;;30.30;;
3000;SDS011;1510;51.072;6.678;2022-11-20T09:26:01;35.00;;;29.70;;
3000;SDS011;1510;51.072;6.678;2022-11-20T09:28:30;38.17;;;33.93;;
3000;SDS011;1510;51.072;6.678;2022-11-20T09:30:57;39.73;;;35.60;;
3000;SDS011;1510;51.072;6.678;2022-11-20T09:33:24;45.07;;;40.43;;
3000;SDS011;1510;51.072;6.678;2022-11-20T09:35:51;43.73;;;39.13;;
3000;SDS011;1510;51.072;6.678;2022-11-20T09:38:18;37.30;;;27.17;;
3000;SDS011;1510;51.072;6.678;2022-11-20T09:40:45;39.80;;;29.63;;
3000;SDS011;1510;51.072;6.678;2022-11-20T09:43:18;42.77;;;30.27;;
3000;SDS011;1510;51.072;6.678;2022-11-20T09:45:56;43.23;;;28.33;;
3000;SDS011;1510;51.072;6.678;2022-11-20T09:48:43;38.47;;;22.43;;
3000;SDS011;1510;51.072;6.678;2022-11-20T09:51:22;37.43;;;21.37;;
3000;SDS011;1510;51.072;6.678;2022-11-20T09:54:02;32.07;;;21.20;;
3000;SDS011;1510;51.072;6.678;2022-11-20T09:56:36;40.50;;;21.90;;
3000;SDS011;1510;51.072;6.678;2022-11-20T09:59:05;37.93;;;21.60;;
3000;SDS011;1510;51.072;6.678;2022-11-20T10:01:39;42.17;;;20.30;;
3000;SDS011;1510;51.072;6.678;2022-11-20T10:04:09;34.20;;;18.97;;
3000;SDS011;1510;51.072;6.678;2022-11-20T10:06:41;36.53;;;18.33;;
3000;SDS011;1510;51.072;6.678;2022-11-20T10:09:16;34.03;;;18.20;;
3000;SDS011;1510;51.072;6.678;2022-11-20T10:11:48;31.43;;;18.47;;
3000;SDS011;1510;51.072;6.678;2022-11-20T10:14:25;43.00;;;26.20;;
3000;SDS011;1510;51.072;6.678;2022-11-20T10:17:01;36.70;;;18.43;;
3000;SDS011;1510;51.072;6.678;2022-11-20T10:19:45;30.00;;;15.63;;
3000;SDS011;1510;51.072;6.678;2022-11-20T10:22:24;38.07;;;17.47;;
3000;SDS011;1510;51.072;6.678;2022-11-20T10:25:05;37.37;;;16.87;;
3000;SDS011;1510;51.072;6.678;2022-11-20T10:27:43;31.60;;;17.73;;
3000;SDS011;1510;51.072;6.678;2022-11-20T10:30:35;31.23;;;15.50;;
3000;SDS011;1510;51.072;6.678;2022-11-20T10:33:11;27.60;;;17.03;;
3000;SDS011;1510;51.072;6.678;2022-11-20T10:35:42;34.10;;;16.20;;
3000;SDS011;1510;51.072;6.678;2022-11-20T10:38:14;31.87;;;17.40;;
3000;SDS011;1510;51.072;6.678;2022-11-20T10:40:51;29.93;;;15.93;;
3000;SDS011;1510;51.072;6.678;2022-11-20T10:43:40;31.60;;;15.93;;
3000;SDS011;1510;51.072;6.678;2022-11-20T10:46:08;33.43;;;20.13;;
3000;SDS011;1510;51.072;6.678;2022-11-20T10:48:42;33.33;;;20.70;;
3000;SDS011;1510;51.072;6.678;2022-11-20T10:51:15;37.07;;;16.73;;
3000;SDS011;1510;51.072;6.678;2022-11-20T10:53:54;27.60;;;16.93;;
3000;SDS011;1510;51.072;6.678;2022-11-20T10:56:26;23.00;;;14.53;;
3000;SDS011;1510;51.072;6.678;2022-11-20T10:59:08;25.83;;;15.57;;
3000;SDS011;1510;51.072;6.678;2022-11-20T11:02:01;30.30;;;14.80;;
3000;SDS011;1510;51.072;6.678;2022-11-20T11:04:43;29.73;;;16.20;;
3000;SDS011;1510;51.072;6.678;2022-11-20T11:07:12;32.33;;;17.23;;
3000;SDS011;1510;51.072;6.678;2022-11-20T11:09:44;31.90;;;16.30;;
3000;SDS011;1510;51.072;6.678;2022-11-20T11:12:14;31.87;;;16.00;;
3000;SDS011;1510;51.072;6.678;2022-11-20T11:14:44;35.03;;;17.40;;
3000;SDS011;1510;51.072;6.678;2022-11-20T11:17:23;31.67;;;17.53;;
3000;SDS011;1510;51.072;6.678;2022-11-20T11:20:02;36.23;;;17.80;;
3000;SDS011;1510;51.072;6.678;2022-11-20T11:22:31;27.93;;;16.07;;
3000;SDS011;1510;51.072;6.678;2022-11-20T11:24:59;34.93;;;17.60;;
3000;SDS011;1510;51.072;6.678;2022-11-20T11:27:27;33.27;;;17.00;;
3000;SDS011;1510;51.072;6.678;2022-11-20T11:30:02;36.63;;;20.17;;
3000;SDS011;1510;51.072;6.678;2022-11-20T11:32:39;37.33;;;19.63;;
3000;SDS011;1510;51.072;6.678;2022-11-20T11:35:18;40.90;;;20.80;;
3000;SDS011;1510;51.072;6.678;2022-11-20T11:37:47;39.37;;;19.93;;
3000;SDS011;1510;51.072;6.678;2022-11-20T11:40:16;33.47;;;19.70;;
3000;SDS011;1510;51.072;6.678;2022-11-20T11:42:46;30.67;;;17.53;;
3000;SDS011;1510;51.072;6.678;2022-11-20T11:45:18;34.93;;;20.27;;
3000;SDS011;1510;51.072;6.678;2022-11-20T11:47:44;32.63;;;18.33;;
3000;SDS011;1510;51.072;6.678;2022-11-20T11:50:19;35.60;;;17.60;;
3000;SDS011;1510;51.072;6.678;2022-11-20T11:52:49;35.07;;;19.57;;
3000;SDS011;1510;51.072;6.678;2022-11-20T11:55:27;32.30;;;18.63;;
3000;SDS011;1510;51.072;6.678;2022-11-20T11:57:59;34.27;;;17.03;;
3000;SDS011;1510;51.072;6.678;2022-11-20T12:00:35;33.47;;;18.33;;
3000;SDS011;1510;51.072;6.678;2022-11-20T12:03:05;31.47;;;20.30;;
3000;SDS011;1510;51.072;6.678;2022-11-20T12:05:40;34.80;;;17.47;;
3000;SDS011;1510;51.072;6.678;2022-11-20T12:08:12;35.57;;;17.73;;
3000;SDS011;1510;51.072;6.678;2022-11-20T12:10:45;31.47;;;17.20;;
3000;SDS011;1510;51.072;6.678;2022-11-20T12:13:20;35.37;;;20.03;;
3000;SDS011;1510;51.072;6.678;2022-11-20T12:15:52;38.90;;;20.13;;
3000;SDS011;1510;51.072;6.678;2022-11-20T12:18:20;35.47;;;18.93;;
3000;SDS011;1510;51.072;6.678;2022-11-20T12:20:52;43.17;;;19.73;;
3000;SDS011;1510;51.072;6.678;2022-11-20T12:23:31;36.60;;;20.00;;
3000;SDS011;1510;51.072;6.678;2022-11-20T12:26:08;36.83;;;18.50;;
3000;SDS011;1510;51.072;6.678;2022-11-20T12:28:44;36.63;;;20.33;;
3000;SDS011;1510;51.072;6.678;2022-11-20T12:31:28;33.60;;;19.20;;
3000;SDS011;1510;51.072;6.678;2022-11-20T12:34:12;37.90;;;20.77;;
3000;SDS011;1510;51.072;6.678;2022-11-20T12:36:51;38.43;;;21.33;;
3000;SDS011;1510;51.072;6.678;2022-11-20T12:39:35;43.60;;;22.03;;
3000;SDS011;1510;51.072;6.678;2022-11-20T12:42:10;40.27;;;20.30;;
3000;SDS011;1510;51.072;6.678;2022-11-20T12:48:28;36.20;;;18.57;;
3000;SDS011;1510;51.072;6.678;2022-11-20T12:51:21;31.50;;;19.37;;
3000;SDS011;1510;51.072;6.678;2022-11-20T12:54:03;38.60;;;20.00;;
3000;SDS011;1510;51.072;6.678;2022-11-20T12:56:46;35.33;;;19.07;;
3000;SDS011;1510;51.072;6.678;2022-11-20T12:59:20;38.13;;;19.80;;
3000;SDS011;1510;51.072;6.678;2022-11-20T13:01:56;33.37;;;19.27;;
3000;SDS011;1510;51.072;6.678;2022-11-20T13:04:33;36.97;;;19.30;;
3000;SDS011;1510;51.072;6.678;2022-11-20T13:07:10;35.33;;;18.73;;
3000;SDS011;1510;51.072;6.678;2022-11-20T13:09:44;38.67;;;19.00;;
3000;SDS011;1510;51.072;6.678;2022-11-20T13:12:13;37.33;;;19.23;;
3000;SDS011;1510;51.072;6.678;2022-11-20T13:14:45;39.87;;;20.20;;
3000;SDS011;1510;51.072;6.678;2022-11-20T13:17:21;37.87;;;20.67;;
3000;SDS011;1510;51.072;6.678;2022-11-20T13:19:51;46.70;;;20.83;;
3000;SDS011;1510;51.072;6.678;2022-11-20T13:22:26;39.10;;;20.70;;
3000;SDS011;1510;51.072;6.678;2022-11-20T13:24:54;37.43;;;19.83;;
3000;SDS011;1510;51.072;6.678;2022-11-20T13:27:21;41.93;;;20.30;;
3000;SDS011;1510;51.072;6.678;2022-11-20T13:29:59;40.03;;;21.10;;
3000;SDS011;1510;51.072;6.678;2022-11-20T13:32:36;38.50;;;21.43;;
3000;SDS011;1510;51.072;6.678;2022-11-20T13:35:23;36.23;;;19.80;;
3000;SDS011;1510;51.072;6.678;2022-11-20T13:37:59;36.37;;;19.20;;
3000;SDS011;1510;51.072;6.678;2022-11-20T13:40:28;32.20;;;18.60;;
3000;SDS011;1510;51.072;6.678;2022-11-20T13:42:56;43.90;;;20.57;;
3000;SDS011;1510;51.072;6.678;2022-11-20T13:45:30;38.00;;;18.33;;
3000;SDS011;1510;51.072;6.678;2022-11-20T13:47:59;36.50;;;19.97;;
3000;SDS011;1510;51.072;6.678;2022-11-20T13:50:39;32.17;;;18.27;;
3000;SDS011;1510;51.072;6.678;2022-11-20T13:53:12;36.33;;;16.43;;
3000;SDS011;1510;51.072;6.678;2022-11-20T13:55:57;36.07;;;19.33;;
3000;SDS011;1510;51.072;6.678;2022-11-20T13:58:30;37.37;;;18.70;;
3000;SDS011;1510;51.072;6.678;2022-11-20T14:01:20;34.03;;;18.73;;
3000;SDS011;1510;51.072;6.678;2022-11-20T14:03:49;29.37;;;18.10;;
3000;SDS011;1510;51.072;6.678;2022-11-20T14:06:20;29.70;;;17.53;;
3000;SDS011;1510;51.072;6.678;2022-11-20T14:08:53;29.63;;;17.70;;
3000;SDS011;1510;51.072;6.678;2022-11-20T14:11:22;27.03;;;16.90;;
3000;SDS011;1510;51.072;6.678;2022-11-20T14:13:58;32.37;;;18.40;;
3000;SDS011;1510;51.072;6.678;2022-11-20T14:16:28;37.60;;;19.67;;
3000;SDS011;1510;51.072;6.678;2022-11-20T14:18:57;38.33;;;19.60;;
3000;SDS011;1510;51.072;6.678;2022-11-20T14:21:43;33.40;;;18.57;;
3000;SDS011;1510;51.072;6.678;2022-11-20T14:24:10;34.27;;;18.77;;
3000;SDS011;1510;51.072;6.678;2022-11-20T14:26:40;39.60;;;21.30;;
3000;SDS011;1510;51.072;6.678;2022-11-20T14:29:10;35.10;;;19.27;;
3000;SDS011;1510;51.072;6.678;2022-11-20T14:31:38;33.63;;;20.17;;
3000;SDS011;1510;51.072;6.678;2022-11-20T14:34:05;36.47;;;20.90;;
3000;SDS011;1510;51.072;6.678;2022-11-20T14:36:31;30.27;;;19.33;;
3000;SDS011;1510;51.072;6.678;2022-11-20T14:38:58;37.10;;;19.00;;
3000;SDS011;1510;51.072;6.678;2022-11-20T14:41:25;35.23;;;20.73;;
3000;SDS011;1510;51.072;6.678;2022-11-20T14:43:58;33.80;;;21.60;;
3000;SDS011;1510;51.072;6.678;2022-11-20T14:46:26;38.60;;;22.53;;
3000;SDS011;1510;51.072;6.678;2022-11-20T14:48:56;28.73;;;20.70;;
3000;SDS011;1510;51.072;6.678;2022-11-20T14:51:27;36.50;;;22.40;;
3000;SDS011;1510;51.072;6.678;2022-11-20T14:54:07;34.00;;;23.70;;
3000;SDS011;1510;51.072;6.678;2022-11-20T14:56:34;37.70;;;24.80;;
3000;SDS011;1510;51.072;6.678;2022-11-20T14:59:03;35.23;;;24.50;;
3000;SDS011;1510;51.072;6.678;2022-11-20T15:01:31;37.50;;;29.30;;